Time;durP1;ratioP1;P1;durP2;ratioP2;P2;SDS_P1;SDS_P2;PMS_P1;PMS_P2;Temp;Humidity;BMP_temperature;BMP_pressure;BME280_temperature;BME280_humidity;BME280_pressure;Samples;Min_cycle;Max_cycle;Signal;HPM_P1;HPM_P2
2021/12/05 00:23:29;;;;;;;15.07;3.15;;;;;;;5.89;68.51;97857.22;5089906;29;20047;-74
2021/12/05 00:26:19;;;;;;;16.40;2.33;;;;;;;5.90;68.21;97856.25;5101573;29;20162;-74
2021/12/05 00:29:16;;;;;;;9.50;2.30;;;;;;;5.91;67.96;97852.66;5100828;29;20055;-74
2021/12/05 00:41:44;;;;;;;15.32;2.63;;;;;;;6.20;66.19;97855.22;5101771;29;20098;-74
2021/12/05 00:50:59;;;;;;;13.63;2.55;;;;;;;6.11;66.30;97850.81;5105451;29;20406;-74
2021/12/05 01:06:50;;;;;;;13.85;1.92;;;;;;;5.77;65.46;97837.31;5094989;29;20166;-74
2021/12/05 01:09:37;;;;;;;11.15;1.77;;;;;;;5.89;65.60;97849.31;5102932;29;20748;-74
2021/12/05 01:12:42;;;;;;;10.85;1.90;;;;;;;6.04;66.03;97855.84;5102128;29;20059;-74
2021/12/05 01:15:35;;;;;;;12.48;1.70;;;;;;;5.82;66.46;97850.88;5103863;29;20507;-74
2021/12/05 01:18:25;;;;;;;8.50;1.80;;;;;;;5.87;67.09;97861.81;5104005;29;20090;-74
2021/12/05 01:21:20;;;;;;;14.00;2.20;;;;;;;5.76;66.74;97856.69;5103772;29;20055;-73
2021/12/05 01:24:26;;;;;;;8.85;1.77;;;;;;;5.86;67.82;97862.75;5103947;29;20070;-74
2021/12/05 01:27:31;;;;;;;11.75;2.17;;;;;;;5.95;65.87;97850.59;5103447;29;20055;-74
2021/12/05 01:30:38;;;;;;;5.32;1.60;;;;;;;6.03;65.58;97877.03;5104225;29;20418;-74
2021/12/05 01:36:34;;;;;;;10.33;1.50;;;;;;;6.11;64.98;97872.69;5104503;29;20107;-74
2021/12/05 01:58:21;;;;;;;5.55;1.60;;;;;;;6.51;62.68;97871.59;5104471;29;20048;-74
2021/12/05 02:11:09;;;;;;;10.32;1.83;;;;;;;6.32;63.35;97874.28;5102718;29;20055;-74
2021/12/05 02:33:23;;;;;;;17.92;2.33;;;;;;;6.11;64.99;97863.97;5101725;29;20118;-74
2021/12/05 02:42:32;;;;;;;7.55;2.00;;;;;;;6.05;65.42;97864.56;5101952;29;20524;-74
2021/12/05 02:45:26;;;;;;;11.23;2.47;;;;;;;5.99;67.00;97858.06;5102461;29;20426;-74
2021/12/05 02:48:17;;;;;;;3.33;1.40;;;;;;;6.02;66.45;97852.50;5102249;29;20063;-74
2021/12/05 02:51:18;;;;;;;6.90;1.70;;;;;;;6.15;65.70;97846.09;5102208;29;20058;-74
2021/12/05 02:54:16;;;;;;;7.65;1.52;;;;;;;6.47;64.23;97861.50;5102422;29;20461;-74
2021/12/05 02:57:08;;;;;;;7.30;1.77;;;;;;;6.38;64.27;97849.19;5101552;29;20062;-74
2021/12/05 03:00:07;;;;;;;6.78;1.73;;;;;;;6.20;65.06;97841.25;5102099;29;20589;-74
2021/12/05 03:02:58;;;;;;;11.50;1.80;;;;;;;5.87;67.48;97843.41;5102272;29;20043;-73
2021/12/05 03:05:56;;;;;;;10.70;1.30;;;;;;;6.04;66.36;97847.94;5084012;29;20069;-74
2021/12/05 03:08:50;;;;;;;10.93;1.90;;;;;;;6.00;67.15;97854.47;5099630;29;20051;-74
2021/12/05 03:11:43;;;;;;;9.32;1.55;;;;;;;5.83;66.71;97849.91;5100081;29;20585;-75
2021/12/05 03:14:33;;;;;;;4.18;1.23;;;;;;;5.88;66.75;97839.78;5102830;29;20051;-74
2021/12/05 03:17:26;;;;;;;10.93;1.70;;;;;;;6.01;66.21;97856.13;5101425;29;20082;-74
2021/12/05 03:20:18;;;;;;;9.40;1.50;;;;;;;6.07;67.41;97857.34;5088189;29;20617;-74
2021/12/05 03:23:08;;;;;;;12.35;2.40;;;;;;;6.13;66.86;97856.78;5101345;29;20507;-74
2021/12/05 03:25:59;;;;;;;10.68;2.35;;;;;;;6.16;66.42;97845.13;5101777;29;20063;-74
2021/12/05 03:28:53;;;;;;;5.35;1.58;;;;;;;6.19;65.84;97850.09;5095526;29;20138;-74
2021/12/05 03:31:46;;;;;;;10.32;1.55;;;;;;;6.01;66.55;97826.34;5080994;29;20070;-74
2021/12/05 03:34:41;;;;;;;3.65;1.50;;;;;;;6.02;66.97;97844.59;5099021;29;20099;-74
2021/12/05 03:37:31;;;;;;;5.45;1.73;;;;;;;5.84;68.31;97820.00;5101994;29;20078;-73
2021/12/05 03:40:28;;;;;;;9.18;1.80;;;;;;;6.02;68.22;97836.72;5101271;29;20203;-74
2021/12/05 03:43:21;;;;;;;7.30;1.63;;;;;;;5.91;67.78;97834.25;5081717;29;20055;-73
2021/12/05 03:46:12;;;;;;;9.75;1.50;;;;;;;5.79;68.69;97830.09;5081532;29;20156;-73
2021/12/05 03:49:09;;;;;;;7.75;1.90;;;;;;;5.67;68.14;97802.34;5069024;29;20459;-73
2021/12/05 03:52:06;;;;;;;9.90;1.88;;;;;;;5.82;67.49;97800.88;5082970;29;20066;-74
2021/12/05 03:54:57;;;;;;;12.93;2.50;;;;;;;6.09;66.06;97815.91;5082141;29;20062;-73
2021/12/05 03:57:49;;;;;;;6.05;1.60;;;;;;;5.95;66.80;97816.41;5099001;29;20525;-74
2021/12/05 04:00:43;;;;;;;5.75;1.38;;;;;;;6.04;66.69;97819.00;5102266;29;20146;-73
2021/12/05 04:03:37;;;;;;;5.07;1.30;;;;;;;5.97;66.96;97811.84;5100536;29;20537;-73
2021/12/05 04:06:28;;;;;;;6.60;1.52;;;;;;;6.23;65.54;97822.53;5112735;29;20538;-73
2021/12/05 04:09:21;;;;;;;5.25;1.20;;;;;;;6.44;63.46;97793.31;5098279;29;20076;-73
2021/12/05 04:12:15;;;;;;;6.90;1.48;;;;;;;6.44;64.55;97804.69;5098405;29;20080;-73
2021/12/05 04:15:07;;;;;;;8.23;1.45;;;;;;;6.57;63.45;97813.06;5101160;29;20102;-74
2021/12/05 04:17:57;;;;;;;3.42;1.20;;;;;;;6.57;63.34;97814.88;5102014;29;20056;-74
2021/12/05 04:20:52;;;;;;;5.05;1.02;;;;;;;6.16;64.16;97803.88;5103184;29;20490;-73
2021/12/05 04:23:43;;;;;;;10.05;1.83;;;;;;;6.46;63.57;97823.81;5105590;29;20514;-73
2021/12/05 04:26:37;;;;;;;5.85;1.63;;;;;;;6.81;63.01;97827.47;5104349;29;20051;-73
2021/12/05 04:29:27;;;;;;;6.03;1.58;;;;;;;6.56;63.41;97810.59;5104956;29;20072;-74
2021/12/05 04:32:19;;;;;;;3.42;1.02;;;;;;;6.32;64.34;97829.53;5104128;29;20056;-74
2021/12/05 04:35:09;;;;;;;7.70;1.42;;;;;;;6.38;63.72;97828.97;5105647;29;20119;-73
2021/12/05 04:38:00;;;;;;;6.32;1.38;;;;;;;6.55;62.49;97833.44;5106356;29;20179;-73
2021/12/05 04:40:51;;;;;;;18.48;2.05;;;;;;;6.63;62.36;97835.38;5104313;29;20107;-74
2021/12/05 04:43:41;;;;;;;6.75;1.50;;;;;;;6.23;63.44;97827.81;5104117;29;20059;-73
2021/12/05 04:46:34;;;;;;;9.02;1.48;;;;;;;6.25;63.44;97825.84;5104043;29;20111;-74
2021/12/05 04:49:24;;;;;;;6.53;1.40;;;;;;;6.11;63.61;97813.97;5104661;29;20593;-73
2021/12/05 04:52:15;;;;;;;5.57;1.55;;;;;;;6.24;63.00;97829.44;5104460;29;20055;-73
2021/12/05 04:55:07;;;;;;;10.18;1.38;;;;;;;5.89;64.10;97812.50;5104062;29;20075;-74
2021/12/05 04:57:58;;;;;;;4.22;1.48;;;;;;;5.95;64.13;97835.63;5105362;29;20059;-73
2021/12/05 05:00:56;;;;;;;6.68;1.50;;;;;;;6.02;64.68;97839.34;5104564;29;20538;-73
2021/12/05 05:03:47;;;;;;;7.63;1.48;;;;;;;5.97;64.27;97833.69;5104388;29;20048;-73
2021/12/05 05:06:37;;;;;;;10.65;1.48;;;;;;;5.90;63.96;97822.06;5103068;29;20074;-73
2021/12/05 05:09:28;;;;;;;6.63;1.50;;;;;;;5.97;63.99;97838.13;5104093;29;20419;-73
2021/12/05 05:12:19;;;;;;;4.38;0.90;;;;;;;5.97;63.82;97838.13;5100949;29;20098;-73
2021/12/05 05:15:11;;;;;;;4.63;1.10;;;;;;;6.06;63.12;97832.00;5097324;29;20058;-73
2021/12/05 05:18:03;;;;;;;5.43;1.25;;;;;;;6.08;62.88;97830.88;5097186;29;20108;-73
2021/12/05 05:21:07;;;;;;;4.63;1.20;;;;;;;5.56;63.87;97826.97;5084494;29;20055;-73
2021/12/05 05:24:22;;;;;;;2.03;0.88;;;;;;;5.64;64.44;97833.19;5085345;29;20054;-73
2021/12/05 05:51:03;;;;;;;8.20;1.40;;;;;;;5.59;64.79;97835.41;5123086;29;20048;-67
2021/12/05 05:53:53;;;;;;;6.90;1.70;;;;;;;5.35;65.89;97842.91;5123113;29;20062;-67
2021/12/05 05:56:45;;;;;;;5.97;1.27;;;;;;;5.57;65.08;97852.31;5122280;28;20055;-67
2021/12/05 05:59:45;;;;;;;8.82;1.33;;;;;;;5.61;64.98;97849.25;5122232;29;20519;-67
2021/12/05 06:05:44;;;;;;;4.38;1.20;;;;;;;5.69;63.90;97852.97;5122395;28;20059;-67
2021/12/05 06:08:37;;;;;;;6.68;1.00;;;;;;;5.61;64.40;97848.41;5123402;28;20055;-67
2021/12/05 06:11:27;;;;;;;5.82;1.35;;;;;;;5.59;64.64;97851.19;5123345;29;20487;-67
2021/12/05 06:14:17;;;;;;;3.33;0.85;;;;;;;5.24;65.38;97849.16;5123871;28;20058;-67
2021/12/05 06:17:07;;;;;;;5.82;1.10;;;;;;;5.70;64.31;97847.59;5121272;28;20106;-67
2021/12/05 06:19:59;;;;;;;6.30;1.23;;;;;;;5.60;63.47;97833.63;5123503;29;20054;-67
2021/12/05 06:22:49;;;;;;;7.60;1.27;;;;;;;5.70;64.12;97831.81;5121986;29;20058;-67
2021/12/05 06:25:42;;;;;;;3.20;1.00;;;;;;;5.33;64.85;97850.94;5122763;28;20090;-67
2021/12/05 06:46:31;;;;;;;4.60;1.10;;;;;;;5.13;64.42;97849.25;5119083;28;20091;-67
2021/12/05 06:49:21;;;;;;;3.53;1.27;;;;;;;5.16;64.38;97857.69;5122039;29;20047;-67
2021/12/05 06:52:11;;;;;;;4.28;1.20;;;;;;;5.12;64.62;97853.69;5118992;28;20129;-67
2021/12/05 06:55:02;;;;;;;4.45;1.20;;;;;;;5.26;64.13;97855.06;5121064;28;20154;-67
2021/12/05 06:57:52;;;;;;;6.68;1.20;;;;;;;5.05;64.48;97862.25;5121771;29;20063;-67
2021/12/05 07:00:42;;;;;;;6.28;1.27;;;;;;;4.92;63.63;97846.75;5122811;29;20063;-67
2021/12/05 07:03:34;;;;;;;7.22;1.08;;;;;;;4.57;65.80;97850.72;5122919;29;20537;-67
2021/12/05 07:06:27;;;;;;;5.57;1.20;;;;;;;4.47;66.81;97876.09;5120540;28;20198;-67
2021/12/05 07:09:18;;;;;;;8.45;1.70;;;;;;;4.50;66.65;97881.06;5122426;29;20143;-67
2021/12/05 07:15:32;;;;;;;2.50;1.00;;;;;;;4.43;67.28;97885.19;5102869;29;20055;-67
2021/12/05 07:42:58;;;;;;;7.20;1.70;;;;;;;4.32;68.36;97894.00;5122536;29;20050;-67
2021/12/05 07:45:54;;;;;;;9.75;1.60;;;;;;;4.35;68.00;97866.66;5134702;28;20046;-67
2021/12/05 07:48:46;;;;;;;7.43;1.65;;;;;;;4.30;67.87;97890.66;5130888;28;20114;-71
2021/12/05 07:51:41;;;;;;;8.73;2.28;;;;;;;4.32;67.66;97873.00;5138653;28;20053;-65
2021/12/05 07:54:40;;;;;;;6.13;2.10;;;;;;;4.28;68.51;97894.38;5131830;28;20062;-65
2021/12/05 07:57:41;;;;;;;5.63;1.60;;;;;;;4.45;67.57;97901.63;5117423;29;20051;-64
2021/12/05 08:00:57;;;;;;;4.15;2.03;;;;;;;4.27;69.28;97897.94;5099713;29;20134;-67
2021/12/05 08:16:28;;;;;;;5.53;1.60;;;;;;;4.92;67.86;97883.53;5127847;28;20668;-65
2021/12/05 08:19:19;;;;;;;6.85;1.67;;;;;;;5.06;67.49;97891.00;5102183;29;20729;-65
2021/12/05 08:22:10;;;;;;;7.93;1.55;;;;;;;5.15;67.08;97889.38;5101620;29;20222;-68
2021/12/05 08:25:09;;;;;;;9.40;1.95;;;;;;;5.18;66.61;97883.84;5133331;28;20178;-70
2021/12/05 08:28:33;;;;;;;4.80;1.67;;;;;;;5.15;66.97;97882.31;5139672;28;20043;-65
2021/12/05 08:31:26;;;;;;;4.70;1.70;;;;;;;5.11;67.21;97888.00;5139372;28;20062;-64
2021/12/05 08:38:25;;;;;;;6.10;1.92;;;;;;;5.47;67.09;97896.19;5128244;28;20113;-67
2021/12/05 08:41:27;;;;;;;6.70;1.98;;;;;;;5.46;66.52;97892.69;5137950;28;20128;-69
2021/12/05 09:24:40;;;;;;;4.78;1.30;;;;;;;6.57;62.85;97910.50;5142814;28;20440;-69
2021/12/05 09:27:52;;;;;;;9.55;1.70;;;;;;;6.75;62.76;97907.91;5140344;28;20422;-69
2021/12/05 09:30:54;;;;;;;9.85;1.70;;;;;;;6.58;63.00;97903.44;5140438;28;20574;-68
2021/12/05 09:40:26;;;;;;;6.68;1.67;;;;;;;6.96;62.20;97910.31;5138942;28;20038;-68
2021/12/05 10:08:45;;;;;;;6.32;1.02;;;;;;;7.78;58.92;97890.00;5104233;29;20065;-68
2021/12/05 10:11:43;;;;;;;3.78;1.05;;;;;;;8.07;58.66;97886.25;5106025;29;20040;-68
2021/12/05 10:14:48;;;;;;;4.63;1.00;;;;;;;7.76;58.72;97889.34;5123509;29;20104;-67
2021/12/05 10:18:21;;;;;;;4.57;0.80;;;;;;;7.71;58.56;97813.25;5122453;28;20051;-68
2021/12/05 10:34:03;;;;;;;4.05;0.70;;;;;;;8.51;56.32;97871.19;5141694;28;20173;-67
2021/12/05 10:37:12;;;;;;;3.25;0.63;;;;;;;8.74;57.01;97854.75;5141772;28;20061;-67
2021/12/05 10:40:09;;;;;;;6.15;0.80;;;;;;;8.38;59.21;97874.25;5123080;28;20043;-67
2021/12/05 10:43:01;;;;;;;1.65;0.80;;;;;;;8.53;56.16;97873.66;5139394;28;20046;-66
2021/12/05 10:45:54;;;;;;;2.85;0.70;;;;;;;8.43;57.51;97879.88;5137379;28;20123;-67
2021/12/05 10:48:46;;;;;;;3.23;0.80;;;;;;;8.06;58.76;97879.31;5133082;28;20108;-67
2021/12/05 10:51:43;;;;;;;6.85;0.80;;;;;;;8.20;58.30;97868.19;5128454;28;20437;-67
2021/12/05 10:54:33;;;;;;;5.05;1.10;;;;;;;8.10;60.26;97878.84;5122831;29;20051;-68
2021/12/05 10:57:28;;;;;;;3.15;1.13;;;;;;;8.17;59.00;97857.94;5122539;28;20217;-68
2021/12/05 11:00:18;;;;;;;4.25;1.30;;;;;;;8.50;59.96;97873.97;5122958;28;20043;-67
2021/12/05 11:03:19;;;;;;;3.28;1.50;;;;;;;8.24;58.35;97869.50;5121561;29;20043;-68
2021/12/05 11:06:26;;;;;;;3.33;1.13;;;;;;;8.02;59.73;97870.06;5107997;29;20065;-67
2021/12/05 11:09:29;;;;;;;2.63;1.25;;;;;;;8.15;59.54;97858.09;5120834;29;20362;-67
2021/12/05 11:12:25;;;;;;;4.60;1.27;;;;;;;8.50;58.87;97853.66;5101247;29;20054;-69
2021/12/05 11:15:15;;;;;;;1.83;1.00;;;;;;;7.82;59.93;97837.75;5102519;29;20058;-68
2021/12/05 11:18:06;;;;;;;3.53;1.20;;;;;;;8.33;58.65;97844.81;5102043;29;20056;-67
2021/12/05 11:20:56;;;;;;;5.82;1.40;;;;;;;8.40;59.30;97835.28;5102223;29;20055;-67
2021/12/05 11:24:10;;;;;;;5.40;1.10;;;;;;;8.02;58.52;97819.91;5102543;29;20052;-67
2021/12/05 11:27:09;;;;;;;2.08;1.00;;;;;;;8.38;58.24;97833.81;5109492;28;20170;-67
2021/12/05 11:30:33;;;;;;;3.60;1.00;;;;;;;7.29;61.12;97850.03;5124774;28;20046;-68
2021/12/05 11:33:25;;;;;;;4.15;0.95;;;;;;;7.81;60.04;97844.00;5133927;28;20137;-66
2021/12/05 11:36:24;;;;;;;5.47;1.35;;;;;;;8.00;59.26;97835.88;5130892;28;20084;-66
2021/12/05 11:39:24;;;;;;;4.80;1.35;;;;;;;8.14;58.87;97831.84;5133601;28;20054;-66
2021/12/05 11:42:20;;;;;;;2.35;1.00;;;;;;;8.37;58.60;97832.94;5134206;28;20146;-67
2021/12/05 11:45:10;;;;;;;2.95;0.80;;;;;;;7.81;59.24;97823.72;5123795;28;20053;-69
2021/12/05 11:48:17;;;;;;;3.97;1.00;;;;;;;8.49;58.00;97832.69;5147453;28;20046;-70
2021/12/05 11:51:18;;;;;;;2.30;1.00;;;;;;;8.51;60.20;97820.16;5133289;28;20148;-69
2021/12/05 11:54:23;;;;;;;4.60;1.40;;;;;;;8.35;58.56;97824.34;5133097;28;20091;-71
2021/12/05 11:57:36;;;;;;;3.38;1.30;;;;;;;8.22;59.60;97824.78;5134612;28;20050;-72
2021/12/05 12:00:27;;;;;;;3.70;1.00;;;;;;;8.58;58.63;97829.13;5141873;28;20058;-66
2021/12/05 12:03:32;;;;;;;3.13;1.05;;;;;;;8.63;57.05;97824.16;5140643;28;20133;-70
2021/12/05 12:06:23;;;;;;;2.47;1.15;;;;;;;8.79;58.24;97831.31;5140308;28;20149;-67
2021/12/05 12:09:14;;;;;;;6.15;1.27;;;;;;;8.75;57.07;97819.41;5138303;28;20045;-69
2021/12/05 12:12:05;;;;;;;2.85;1.00;;;;;;;8.74;58.04;97800.09;5121757;28;20532;-71
2021/12/05 12:14:55;;;;;;;5.45;1.30;;;;;;;8.78;58.77;97834.97;5120872;28;20118;-67
2021/12/05 12:17:48;;;;;;;4.90;1.52;;;;;;;8.44;58.09;97790.91;5132060;28;20059;-67
2021/12/05 12:20:40;;;;;;;2.72;1.30;;;;;;;8.72;58.87;97823.22;5120848;28;20555;-67
2021/12/05 12:23:31;;;;;;;8.43;1.52;;;;;;;8.47;59.77;97828.38;5119534;28;20584;-67
2021/12/05 12:26:23;;;;;;;2.97;1.10;;;;;;;8.63;58.13;97829.44;5120347;29;20413;-69
2021/12/05 12:29:13;;;;;;;4.28;1.27;;;;;;;8.64;59.05;97818.72;5120576;28;20051;-70
2021/12/05 12:32:12;;;;;;;5.20;1.33;;;;;;;8.60;58.96;97813.91;5120352;29;20114;-70
2021/12/05 12:35:09;;;;;;;3.78;1.48;;;;;;;8.94;58.30;97825.25;5120432;29;20114;-69
2021/12/05 12:38:08;;;;;;;3.30;1.30;;;;;;;8.64;59.05;97820.53;5120007;29;20062;-70
2021/12/05 12:41:19;;;;;;;5.05;1.50;;;;;;;8.30;59.56;97818.72;5119527;28;20141;-71
2021/12/05 12:44:09;;;;;;;5.00;1.45;;;;;;;8.44;60.34;97815.53;5125034;29;20625;-70
2021/12/05 12:47:03;;;;;;;4.18;1.30;;;;;;;8.36;60.23;97817.25;5124599;28;20083;-70
2021/12/05 12:49:53;;;;;;;4.03;2.10;;;;;;;8.12;59.05;97823.25;5134724;28;20040;-68
2021/12/05 12:53:03;;;;;;;4.70;1.27;;;;;;;7.65;61.27;97827.09;5123373;29;20042;-69
2021/12/05 12:55:58;;;;;;;5.05;1.50;;;;;;;7.83;59.64;97834.94;5104538;29;20074;-70
2021/12/05 12:58:58;;;;;;;4.88;1.52;;;;;;;8.16;59.16;97830.69;5107887;29;20133;-69
2021/12/05 13:11:09;;;;;;;3.17;1.25;;;;;;;8.10;59.92;97833.97;5123355;29;20053;-71
2021/12/05 13:14:01;;;;;;;;;;;;;;;8.19;60.35;97835.66;5124512;28;20051;-70
2021/12/05 13:16:52;;;;;;;6.18;1.60;;;;;;;8.00;60.40;97828.78;5122547;28;19983;-70
2021/12/05 13:19:57;;;;;;;4.82;1.15;;;;;;;8.05;61.14;97838.06;5123313;29;20055;-70
2021/12/05 13:23:06;;;;;;;3.35;1.27;;;;;;;8.06;60.99;97842.34;5124451;29;20054;-66
2021/12/05 13:26:02;;;;;;;4.45;1.23;;;;;;;7.96;60.56;97838.00;5119863;28;20055;-69
2021/12/05 13:29:14;;;;;;;3.45;1.20;;;;;;;7.80;61.69;97852.91;5121674;28;20604;-69
2021/12/05 13:32:11;;;;;;;4.50;1.13;;;;;;;7.95;60.30;97846.91;5124212;29;20114;-67
2021/12/05 13:35:07;;;;;;;4.13;1.92;;;;;;;7.72;61.84;97858.97;5125022;28;20114;-68
2021/12/05 13:37:59;;;;;;;5.25;2.00;;;;;;;7.84;63.02;97865.63;5124087;28;20077;-67
2021/12/05 13:40:50;;;;;;;10.50;3.85;;;;;;;8.03;61.83;97879.63;5126240;28;20153;-68
2021/12/05 13:43:41;;;;;;;6.15;2.08;;;;;;;7.38;64.41;97893.13;5129256;28;20050;-69
2021/12/05 13:46:38;;;;;;;4.15;1.77;;;;;;;6.83;64.72;97889.59;5122654;29;20118;-69
2021/12/05 13:49:36;;;;;;;4.03;1.27;;;;;;;6.45;66.30;97895.03;5122997;29;20564;-66
2021/12/05 13:52:36;;;;;;;1.15;0.50;;;;;;;6.21;64.93;97885.00;5122337;28;20047;-67
2021/12/05 13:56:02;;;;;;;2.33;0.70;;;;;;;6.66;64.10;97876.38;5123231;28;20062;-68
2021/12/05 13:58:56;;;;;;;1.00;0.50;;;;;;;6.76;65.17;97867.44;5137949;28;20058;-70
2021/12/05 14:01:50;;;;;;;2.65;0.60;;;;;;;7.27;64.94;97887.09;5134381;28;20054;-68
2021/12/05 14:04:40;;;;;;;1.15;0.63;;;;;;;7.38;64.28;97893.94;5132732;28;20097;-68
2021/12/05 14:07:31;;;;;;;1.35;0.65;;;;;;;7.34;64.71;97900.50;5125355;28;20051;-67
2021/12/05 14:10:21;;;;;;;4.22;0.70;;;;;;;7.36;63.73;97888.00;5122402;28;20062;-68
2021/12/05 14:13:11;;;;;;;1.83;0.70;;;;;;;7.30;64.05;97885.97;5122703;29;20050;-67
2021/12/05 14:16:02;;;;;;;4.78;0.90;;;;;;;7.42;65.92;97874.22;5121677;28;20182;-68
2021/12/05 14:18:54;;;;;;;2.22;0.63;;;;;;;7.53;62.68;97871.34;5122579;28;20279;-71
2021/12/05 14:21:48;;;;;;;1.42;0.75;;;;;;;7.41;64.27;97866.44;5122330;29;20585;-69
2021/12/05 14:24:45;;;;;;;2.28;0.70;;;;;;;7.29;63.73;97886.94;5121043;29;20141;-69
2021/12/05 14:27:42;;;;;;;0.80;0.80;;;;;;;7.11;66.29;97902.72;5122100;29;20525;-67
2021/12/05 14:30:34;;;;;;;5.40;1.25;;;;;;;6.99;66.44;97906.56;5122540;28;20113;-67
2021/12/05 14:33:25;;;;;;;3.70;1.17;;;;;;;7.37;64.77;97897.56;5122337;28;20054;-65
2021/12/05 14:36:30;;;;;;;3.35;1.38;;;;;;;7.06;65.51;97913.72;5121618;28;20691;-68
2021/12/05 14:39:36;;;;;;;2.20;0.90;;;;;;;6.83;66.07;97915.13;5120724;29;20059;-69
2021/12/05 14:42:30;;;;;;;5.30;1.65;;;;;;;6.61;66.40;97911.06;5112999;29;20043;-68
2021/12/05 14:45:23;;;;;;;3.10;1.40;;;;;;;6.45;66.80;97902.94;5134843;28;20194;-68
2021/12/05 14:48:15;;;;;;;2.57;1.43;;;;;;;6.20;68.03;97918.41;5121633;28;20070;-68
2021/12/05 14:51:11;;;;;;;5.32;1.92;;;;;;;6.49;66.81;97925.38;5121541;28;20325;-67
2021/12/05 14:54:04;;;;;;;3.47;1.92;;;;;;;6.45;67.02;97938.00;5121823;29;20062;-67
2021/12/05 14:56:55;;;;;;;3.83;2.30;;;;;;;6.45;67.98;97943.25;5121156;29;20126;-69
2021/12/05 14:59:48;;;;;;;5.13;2.80;;;;;;;6.27;67.70;97919.50;5121796;28;20167;-68
2021/12/05 15:02:39;;;;;;;7.22;3.33;;;;;;;6.35;68.15;97947.72;5119592;28;20133;-68
2021/12/05 15:05:31;;;;;;;4.45;2.83;;;;;;;6.37;67.18;97945.78;5122263;28;20543;-65
2021/12/05 15:08:24;;;;;;;4.85;2.13;;;;;;;6.26;67.87;97945.97;5122745;29;20054;-67
2021/12/05 15:11:18;;;;;;;4.93;2.28;;;;;;;6.39;67.25;97943.00;5122408;29;20438;-67
2021/12/05 15:14:08;;;;;;;7.93;2.60;;;;;;;6.06;68.18;97953.03;5122409;28;20061;-67
2021/12/05 15:17:04;;;;;;;4.82;2.13;;;;;;;5.95;68.05;97946.13;5121222;28;20062;-67
2021/12/05 15:19:57;;;;;;;6.13;2.75;;;;;;;5.89;67.88;97959.81;5122081;29;20498;-67
2021/12/05 15:23:10;;;;;;;4.35;2.83;;;;;;;5.70;67.62;97978.25;5122194;29;20066;-66
2021/12/05 15:26:02;;;;;;;6.22;4.22;;;;;;;5.74;67.52;97972.56;5121576;29;20065;-67
2021/12/05 15:29:00;;;;;;;12.02;6.55;;;;;;;5.49;67.57;97966.03;5122377;29;20053;-71
2021/12/05 15:32:16;;;;;;;10.23;5.45;;;;;;;5.56;67.87;97971.59;5122014;28;20118;-67
2021/12/05 15:35:14;;;;;;;4.68;2.60;;;;;;;5.42;67.91;97980.69;5122056;29;20106;-70
2021/12/05 15:38:12;;;;;;;4.50;2.53;;;;;;;5.36;67.49;97965.47;5121897;29;20426;-67
2021/12/05 15:41:17;;;;;;;3.28;2.28;;;;;;;5.10;68.17;97989.66;5121700;29;20534;-70
2021/12/05 15:44:07;;;;;;;3.78;2.20;;;;;;;4.99;67.78;97984.47;5122054;29;20150;-69
2021/12/05 15:47:31;;;;;;;3.83;2.22;;;;;;;4.80;68.20;98006.28;5121306;28;20443;-69
2021/12/05 15:50:23;;;;;;;5.57;2.50;;;;;;;4.71;68.57;98005.25;5120019;29;20175;-69
2021/12/05 15:53:14;;;;;;;8.02;2.13;;;;;;;4.82;68.48;98006.94;5121632;29;20047;-66
2021/12/05 15:56:09;;;;;;;4.10;2.00;;;;;;;4.58;68.64;97999.38;5121471;28;20058;-66
2021/12/05 15:59:17;;;;;;;;;;;;;;;4.71;68.85;98012.31;5121023;28;20050;-67
2021/12/05 16:02:10;;;;;;;3.53;2.30;;;;;;;4.55;68.58;98012.75;5121739;29;19922;-67
2021/12/05 16:05:17;;;;;;;3.60;2.28;;;;;;;4.58;69.07;98009.06;5133996;28;20050;-67
2021/12/05 16:08:11;;;;;;;3.42;2.22;;;;;;;4.47;69.15;98005.56;5137752;28;20045;-67
2021/12/05 16:11:09;;;;;;;8.88;3.63;;;;;;;4.53;69.08;98008.59;5140029;28;20126;-67
2021/12/05 16:13:59;;;;;;;4.30;2.42;;;;;;;4.43;69.87;98019.03;5122119;28;20050;-67
2021/12/05 16:16:52;;;;;;;4.82;2.90;;;;;;;4.32;69.26;98022.56;5126522;28;20058;-67
2021/12/05 16:20:09;;;;;;;4.32;3.28;;;;;;;4.21;69.50;98023.47;5128373;28;20080;-69
2021/12/05 16:23:11;;;;;;;6.32;3.85;;;;;;;4.33;69.67;98024.22;5127822;28;20077;-70
2021/12/05 16:26:09;;;;;;;7.90;3.13;;;;;;;4.54;69.11;98021.63;5127808;28;20670;-70
2021/12/05 16:29:22;;;;;;;4.32;3.20;;;;;;;4.30;70.07;98016.59;5128186;29;20540;-69
2021/12/05 16:32:13;;;;;;;5.78;2.92;;;;;;;4.23;69.61;98025.97;5126888;28;20082;-69
2021/12/05 16:35:03;;;;;;;5.80;3.40;;;;;;;4.20;69.50;98027.03;5128084;28;20051;-70
2021/12/05 16:37:54;;;;;;;7.35;4.32;;;;;;;4.07;69.51;98028.19;5142826;28;20073;-69
2021/12/05 16:41:22;;;;;;;10.77;4.95;;;;;;;4.10;70.33;98027.94;5140882;28;20058;-68
2021/12/05 16:44:16;;;;;;;5.70;4.00;;;;;;;4.19;69.93;98027.19;5135475;28;20046;-67
2021/12/05 16:47:15;;;;;;;7.22;3.35;;;;;;;4.21;69.46;98020.84;5138915;28;20058;-70
2021/12/05 16:50:13;;;;;;;5.78;2.97;;;;;;;4.13;69.62;98028.50;5128698;29;20054;-69
2021/12/05 16:53:04;;;;;;;8.52;2.75;;;;;;;4.14;69.94;98016.22;5128081;28;20145;-70
2021/12/05 16:55:59;;;;;;;19.25;3.22;;;;;;;3.93;69.23;98029.31;5127194;28;20109;-70
2021/12/05 16:59:04;;;;;;;6.63;3.35;;;;;;;3.75;69.59;98024.63;5127798;29;20050;-66
2021/12/05 17:02:11;;;;;;;10.25;3.50;;;;;;;3.75;70.25;98037.75;5127884;28;20185;-69
2021/12/05 17:05:18;;;;;;;4.82;3.30;;;;;;;3.81;70.49;98046.03;5127809;28;20070;-67
2021/12/05 17:08:13;;;;;;;7.57;3.90;;;;;;;3.78;70.29;98047.16;5126961;28;20050;-68
2021/12/05 17:11:08;;;;;;;9.23;4.18;;;;;;;3.68;69.54;98054.94;5127549;29;20042;-69
2021/12/05 17:13:58;;;;;;;16.27;6.80;;;;;;;3.70;70.18;98054.78;5127747;28;20058;-70
2021/12/05 17:16:49;;;;;;;20.15;8.70;;;;;;;3.66;70.32;98035.84;5127578;28;20137;-70
2021/12/05 17:19:39;;;;;;;17.77;8.45;;;;;;;3.63;71.03;98046.59;5129420;28;20117;-68
2021/12/05 17:22:29;;;;;;;16.50;7.75;;;;;;;3.71;71.00;98062.56;5137441;28;20058;-69
2021/12/05 17:25:39;;;;;;;7.85;4.10;;;;;;;3.92;70.11;98062.59;5130268;28;20058;-70
2021/12/05 17:28:34;;;;;;;7.95;4.60;;;;;;;3.92;69.71;98061.75;5122316;28;20506;-69
2021/12/05 17:31:29;;;;;;;7.65;4.65;;;;;;;3.83;71.04;98076.44;5124610;28;20114;-68
2021/12/05 17:34:22;;;;;;;9.45;7.05;;;;;;;3.60;71.93;98073.03;5124359;29;20055;-68
2021/12/05 17:37:19;;;;;;;8.15;5.07;;;;;;;3.83;71.05;98073.81;5121419;28;20049;-67
2021/12/05 17:40:10;;;;;;;7.05;4.28;;;;;;;3.79;69.56;98076.81;5113064;29;20051;-68
2021/12/05 17:43:00;;;;;;;7.22;4.65;;;;;;;4.07;69.32;98076.22;5116728;28;20058;-68
2021/12/05 17:45:50;;;;;;;6.05;4.32;;;;;;;4.15;68.41;98065.97;5103643;29;20055;-69
2021/12/05 17:48:42;;;;;;;7.60;4.40;;;;;;;4.28;69.55;98078.91;5104813;29;20159;-67
2021/12/05 17:51:37;;;;;;;10.45;4.53;;;;;;;4.44;68.47;98075.84;5104066;29;20052;-67
2021/12/05 17:54:35;;;;;;;13.02;6.03;;;;;;;4.10;70.27;98081.22;5104247;29;20134;-68
2021/12/05 17:57:39;;;;;;;6.57;5.20;;;;;;;3.93;70.88;98089.66;5114763;29;20058;-67
2021/12/05 18:00:36;;;;;;;10.27;6.25;;;;;;;3.87;71.24;98090.97;5137020;28;20144;-68
2021/12/05 18:03:26;;;;;;;9.43;6.03;;;;;;;4.12;70.00;98099.47;5140539;28;20053;-69
2021/12/05 18:06:19;;;;;;;8.98;5.28;;;;;;;4.10;70.66;98096.13;5138936;28;20421;-68
2021/12/05 18:09:09;;;;;;;23.75;14.35;;;;;;;4.27;70.20;98094.75;5139251;28;20047;-68
2021/12/05 18:11:59;;;;;;;11.45;5.97;;;;;;;4.01;70.65;98087.25;5138058;28;20054;-69
2021/12/05 18:14:51;;;;;;;11.45;7.10;;;;;;;3.94;71.40;98109.66;5133354;28;20062;-68
2021/12/05 18:17:41;;;;;;;14.55;8.02;;;;;;;4.00;70.44;98109.16;5141316;28;20058;-68
2021/12/05 18:20:35;;;;;;;13.40;7.38;;;;;;;4.08;70.83;98116.44;5140893;28;20092;-68
2021/12/05 18:23:25;;;;;;;11.93;6.30;;;;;;;4.77;67.81;98111.56;5131086;28;20050;-69
2021/12/05 18:26:16;;;;;;;9.88;6.57;;;;;;;4.21;70.12;98104.81;5135695;28;20128;-67
2021/12/05 18:29:09;;;;;;;12.95;6.93;;;;;;;4.20;70.02;98113.63;5136295;28;20133;-68
2021/12/05 18:32:00;;;;;;;10.52;6.85;;;;;;;4.15;69.99;98122.84;5141622;28;20524;-69
2021/12/05 18:34:50;;;;;;;12.20;6.88;;;;;;;4.05;70.17;98120.13;5139879;28;20050;-69
2021/12/05 18:37:42;;;;;;;13.55;7.88;;;;;;;3.94;70.88;98126.25;5140838;28;20524;-69
2021/12/05 18:40:34;;;;;;;16.80;11.10;;;;;;;4.02;70.31;98124.81;5139458;28;20049;-67
2021/12/05 18:43:29;;;;;;;15.73;10.10;;;;;;;3.82;70.32;98090.53;5128070;28;20433;-68
2021/12/05 18:46:20;;;;;;;15.30;8.70;;;;;;;3.83;70.62;98112.31;5122494;28;20473;-67
2021/12/05 18:49:11;;;;;;;17.58;9.43;;;;;;;3.94;69.99;98118.38;5122383;29;20050;-69